sensor_id;sensor_type;location;lat;lon;timestamp;pressure;altitude;pressure_sealevel;temperature;humidity
15932;BME280;8065;49.520;11.284;2023-04-24T00:01:05;96455.81;;;14.90;87.58
15932;BME280;8065;49.520;11.284;2023-04-24T00:03:32;96463.47;;;14.92;86.72
15932;BME280;8065;49.520;11.284;2023-04-24T00:06:00;96469.22;;;14.94;86.63
15932;BME280;8065;49.520;11.284;2023-04-24T00:08:27;96471.88;;;14.90;86.88
15932;BME280;8065;49.520;11.284;2023-04-24T00:10:54;96471.03;;;14.83;87.01
15932;BME280;8065;49.520;11.284;2023-04-24T00:13:20;96469.50;;;14.82;87.67
15932;BME280;8065;49.520;11.284;2023-04-24T00:15:47;96467.97;;;14.81;87.00
15932;BME280;8065;49.520;11.284;2023-04-24T00:18:13;96470.66;;;14.81;87.50
15932;BME280;8065;49.520;11.284;2023-04-24T00:20:40;96466.44;;;14.80;87.44
15932;BME280;8065;49.520;11.284;2023-04-24T00:23:07;96461.09;;;14.80;87.52
15932;BME280;8065;49.520;11.284;2023-04-24T00:25:34;96455.69;;;14.69;87.86
15932;BME280;8065;49.520;11.284;2023-04-24T00:28:00;96450.69;;;14.67;87.79
15932;BME280;8065;49.520;11.284;2023-04-24T00:30:27;96459.38;;;14.57;88.18
15932;BME280;8065;49.520;11.284;2023-04-24T00:32:53;96463.25;;;14.63;88.21
15932;BME280;8065;49.520;11.284;2023-04-24T00:35:20;96457.91;;;14.63;87.98
15932;BME280;8065;49.520;11.284;2023-04-24T00:37:46;96462.09;;;14.61;87.38
15932;BME280;8065;49.520;11.284;2023-04-24T00:40:14;96459.84;;;14.66;88.00
15932;BME280;8065;49.520;11.284;2023-04-24T00:42:41;96465.25;;;14.70;87.12
15932;BME280;8065;49.520;11.284;2023-04-24T00:45:09;96462.94;;;14.68;87.37
15932;BME280;8065;49.520;11.284;2023-04-24T00:47:36;96461.78;;;14.69;87.54
15932;BME280;8065;49.520;11.284;2023-04-24T00:50:04;96462.56;;;14.73;87.46
15932;BME280;8065;49.520;11.284;2023-04-24T00:52:31;96457.22;;;14.73;87.35
15932;BME280;8065;49.520;11.284;2023-04-24T00:54:58;96459.56;;;14.79;87.19
15932;BME280;8065;49.520;11.284;2023-04-24T00:57:26;96449.53;;;14.65;87.81
15932;BME280;8065;49.520;11.284;2023-04-24T00:59:53;96446.47;;;14.66;87.39
15932;BME280;8065;49.520;11.284;2023-04-24T01:02:20;96441.94;;;14.70;87.52
15932;BME280;8065;49.520;11.284;2023-04-24T01:04:50;96438.50;;;14.73;87.39
15932;BME280;8065;49.520;11.284;2023-04-24T01:07:18;96443.44;;;14.68;87.43
15932;BME280;8065;49.520;11.284;2023-04-24T01:09:47;96440.03;;;14.74;87.34
15932;BME280;8065;49.520;11.284;2023-04-24T01:12:16;96438.13;;;14.71;87.44
15932;BME280;8065;49.520;11.284;2023-04-24T01:14:44;96444.63;;;14.70;87.81
15932;BME280;8065;49.520;11.284;2023-04-24T01:17:11;96444.25;;;14.75;87.53
15932;BME280;8065;49.520;11.284;2023-04-24T01:19:37;96439.66;;;14.76;87.34
15932;BME280;8065;49.520;11.284;2023-04-24T01:22:10;96450.00;;;14.77;87.66
15932;BME280;8065;49.520;11.284;2023-04-24T01:24:36;96448.06;;;14.74;87.06
15932;BME280;8065;49.520;11.284;2023-04-24T01:27:03;96445.00;;;14.72;86.75
15932;BME280;8065;49.520;11.284;2023-04-24T01:29:29;96441.94;;;14.70;87.48
15932;BME280;8065;49.520;11.284;2023-04-24T01:31:56;96442.22;;;14.58;87.94
15932;BME280;8065;49.520;11.284;2023-04-24T01:34:26;96447.19;;;14.60;87.69
15932;BME280;8065;49.520;11.284;2023-04-24T01:36:54;96451.00;;;14.59;87.48
15932;BME280;8065;49.520;11.284;2023-04-24T01:39:23;96451.44;;;14.64;87.25
15932;BME280;8065;49.520;11.284;2023-04-24T01:41:50;96448.03;;;14.67;87.14
15932;BME280;8065;49.520;11.284;2023-04-24T01:44:17;96450.63;;;14.60;86.91
15932;BME280;8065;49.520;11.284;2023-04-24T01:46:44;96451.41;;;14.61;87.40
15932;BME280;8065;49.520;11.284;2023-04-24T01:49:10;96447.97;;;14.60;86.66
15932;BME280;8065;49.520;11.284;2023-04-24T01:51:37;96450.28;;;14.65;86.50
15932;BME280;8065;49.520;11.284;2023-04-24T01:54:03;96449.50;;;14.61;86.71
15932;BME280;8065;49.520;11.284;2023-04-24T01:56:33;96447.59;;;14.62;86.70
15932;BME280;8065;49.520;11.284;2023-04-24T01:59:00;96444.88;;;14.58;86.69
15932;BME280;8065;49.520;11.284;2023-04-24T02:01:33;96443.75;;;14.59;87.47
15932;BME280;8065;49.520;11.284;2023-04-24T02:03:59;96438.75;;;14.54;87.22
15932;BME280;8065;49.520;11.284;2023-04-24T02:06:26;96440.28;;;14.55;87.22
15932;BME280;8065;49.520;11.284;2023-04-24T02:08:52;96440.69;;;14.57;87.40
15932;BME280;8065;49.520;11.284;2023-04-24T02:11:19;96437.25;;;14.60;86.78
15932;BME280;8065;49.520;11.284;2023-04-24T02:13:47;96438.00;;;14.57;86.82
15932;BME280;8065;49.520;11.284;2023-04-24T02:16:13;96434.88;;;14.48;87.72
15932;BME280;8065;49.520;11.284;2023-04-24T02:18:39;96433.38;;;14.51;87.81
15932;BME280;8065;49.520;11.284;2023-04-24T02:21:06;96426.03;;;14.44;87.93
15932;BME280;8065;49.520;11.284;2023-04-24T02:23:32;96419.56;;;14.45;88.39
15932;BME280;8065;49.520;11.284;2023-04-24T02:25:59;96428.63;;;14.37;88.17
15932;BME280;8065;49.520;11.284;2023-04-24T02:28:25;96413.00;;;14.39;88.39
15932;BME280;8065;49.520;11.284;2023-04-24T02:30:53;96409.50;;;14.35;88.06
15932;BME280;8065;49.520;11.284;2023-04-24T02:33:19;96408.72;;;14.31;88.48
15932;BME280;8065;49.520;11.284;2023-04-24T02:35:46;96405.75;;;14.39;87.84
15932;BME280;8065;49.520;11.284;2023-04-24T02:38:12;96403.53;;;14.45;87.85
15932;BME280;8065;49.520;11.284;2023-04-24T02:40:39;96408.84;;;14.41;87.26
15932;BME280;8065;49.520;11.284;2023-04-24T02:43:05;96410.69;;;14.37;87.47
15932;BME280;8065;49.520;11.284;2023-04-24T02:45:31;96413.00;;;14.39;87.56
15932;BME280;8065;49.520;11.284;2023-04-24T02:48:01;96413.38;;;14.41;87.03
15932;BME280;8065;49.520;11.284;2023-04-24T02:50:27;96409.53;;;14.38;86.87
15932;BME280;8065;49.520;11.284;2023-04-24T02:52:53;96409.81;;;14.26;87.52
15932;BME280;8065;49.520;11.284;2023-04-24T02:55:20;96408.34;;;14.32;87.80
15932;BME280;8065;49.520;11.284;2023-04-24T02:57:46;96412.16;;;14.31;87.10
15932;BME280;8065;49.520;11.284;2023-04-24T03:00:13;96402.63;;;14.34;87.33
15932;BME280;8065;49.520;11.284;2023-04-24T03:02:40;96403.69;;;14.26;87.49
15932;BME280;8065;49.520;11.284;2023-04-24T03:05:08;96404.09;;;14.28;87.44
15932;BME280;8065;49.520;11.284;2023-04-24T03:07:37;96404.44;;;14.23;87.69
15932;BME280;8065;49.520;11.284;2023-04-24T03:10:04;96401.69;;;14.16;87.19
15932;BME280;8065;49.520;11.284;2023-04-24T03:12:31;96414.69;;;14.17;87.75
15932;BME280;8065;49.520;11.284;2023-04-24T03:14:57;96404.00;;;14.17;87.48
15932;BME280;8065;49.520;11.284;2023-04-24T03:17:24;96399.44;;;14.18;87.48
15932;BME280;8065;49.520;11.284;2023-04-24T03:19:50;96400.22;;;14.22;87.70
15932;BME280;8065;49.520;11.284;2023-04-24T03:22:18;96391.78;;;14.16;88.14
15932;BME280;8065;49.520;11.284;2023-04-24T03:24:44;96392.56;;;14.20;87.84
15932;BME280;8065;49.520;11.284;2023-04-24T03:27:11;96390.28;;;14.19;87.71
15932;BME280;8065;49.520;11.284;2023-04-24T03:29:37;96403.66;;;14.22;87.74
15932;BME280;8065;49.520;11.284;2023-04-24T03:32:04;96402.09;;;14.18;87.26
15932;BME280;8065;49.520;11.284;2023-04-24T03:34:30;96403.19;;;14.13;87.74
15932;BME280;8065;49.520;11.284;2023-04-24T03:36:56;96400.88;;;14.11;87.49
15932;BME280;8065;49.520;11.284;2023-04-24T03:39:24;96396.28;;;14.08;88.01
15932;BME280;8065;49.520;11.284;2023-04-24T03:41:52;96397.03;;;14.09;87.64
15932;BME280;8065;49.520;11.284;2023-04-24T03:44:18;96411.53;;;14.08;88.00
15932;BME280;8065;49.520;11.284;2023-04-24T03:46:45;96412.59;;;14.00;88.28
15932;BME280;8065;49.520;11.284;2023-04-24T03:49:11;96408.34;;;13.95;88.52
15932;BME280;8065;49.520;11.284;2023-04-24T03:51:38;96409.16;;;13.99;88.12
15932;BME280;8065;49.520;11.284;2023-04-24T03:54:04;96409.16;;;13.99;88.56
15932;BME280;8065;49.520;11.284;2023-04-24T03:56:32;96411.03;;;13.95;88.55
15932;BME280;8065;49.520;11.284;2023-04-24T03:58:58;96408.38;;;13.99;88.59
15932;BME280;8065;49.520;11.284;2023-04-24T04:01:25;96412.28;;;14.05;88.48
15932;BME280;8065;49.520;11.284;2023-04-24T04:03:53;96418.38;;;14.05;88.04
15932;BME280;8065;49.520;11.284;2023-04-24T04:06:20;96409.22;;;14.06;87.80
15932;BME280;8065;49.520;11.284;2023-04-24T04:08:46;96412.31;;;14.08;87.86
15932;BME280;8065;49.520;11.284;2023-04-24T04:11:13;96411.91;;;14.06;87.52
15932;BME280;8065;49.520;11.284;2023-04-24T04:13:40;96414.56;;;14.06;87.65
15932;BME280;8065;49.520;11.284;2023-04-24T04:16:08;96419.88;;;14.03;87.51
15932;BME280;8065;49.520;11.284;2023-04-24T04:18:34;96418.31;;;13.98;87.54
15932;BME280;8065;49.520;11.284;2023-04-24T04:21:01;96419.06;;;13.99;87.67
15932;BME280;8065;49.520;11.284;2023-04-24T04:23:27;96418.28;;;13.95;87.73
15932;BME280;8065;49.520;11.284;2023-04-24T04:25:54;96419.03;;;13.95;87.25
15932;BME280;8065;49.520;11.284;2023-04-24T04:28:21;96423.59;;;13.95;87.20
15932;BME280;8065;49.520;11.284;2023-04-24T04:30:48;96419.41;;;13.94;87.03
15932;BME280;8065;49.520;11.284;2023-04-24T04:33:18;96422.44;;;13.92;87.45
15932;BME280;8065;49.520;11.284;2023-04-24T04:35:45;96414.28;;;13.78;88.05
15932;BME280;8065;49.520;11.284;2023-04-24T04:38:14;96419.03;;;13.95;87.86
15932;BME280;8065;49.520;11.284;2023-04-24T04:40:42;96409.81;;;13.89;87.86
15932;BME280;8065;49.520;11.284;2023-04-24T04:43:08;96412.91;;;13.58;88.66
15932;BME280;8065;49.520;11.284;2023-04-24T04:45:35;96412.34;;;13.75;87.99
15932;BME280;8065;49.520;11.284;2023-04-24T04:48:04;96415.97;;;13.60;88.87
15932;BME280;8065;49.520;11.284;2023-04-24T04:50:32;96412.00;;;13.76;88.16
15932;BME280;8065;49.520;11.284;2023-04-24T04:52:59;96414.34;;;13.82;87.97
15932;BME280;8065;49.520;11.284;2023-04-24T04:55:25;96417.41;;;13.87;88.21
15932;BME280;8065;49.520;11.284;2023-04-24T04:57:51;96423.56;;;13.91;87.52
15932;BME280;8065;49.520;11.284;2023-04-24T05:00:18;96422.84;;;13.94;87.18
15932;BME280;8065;49.520;11.284;2023-04-24T05:02:45;96415.16;;;13.89;87.60
15932;BME280;8065;49.520;11.284;2023-04-24T05:05:12;96427.44;;;13.97;86.97
15932;BME280;8065;49.520;11.284;2023-04-24T05:07:39;96431.25;;;13.96;87.35
15932;BME280;8065;49.520;11.284;2023-04-24T05:10:06;96434.34;;;13.98;87.10
15932;BME280;8065;49.520;11.284;2023-04-24T05:12:33;96427.06;;;13.95;87.77
15932;BME280;8065;49.520;11.284;2023-04-24T05:14:59;96438.88;;;13.94;87.25
15932;BME280;8065;49.520;11.284;2023-04-24T05:17:26;96431.97;;;13.93;88.29
15932;BME280;8065;49.520;11.284;2023-04-24T05:19:52;96432.13;;;14.07;87.24
15932;BME280;8065;49.520;11.284;2023-04-24T05:22:20;96430.28;;;14.11;87.77
15932;BME280;8065;49.520;11.284;2023-04-24T05:24:47;96438.63;;;14.06;87.82
15932;BME280;8065;49.520;11.284;2023-04-24T05:27:13;96443.66;;;14.15;87.86
15932;BME280;8065;49.520;11.284;2023-04-24T05:29:40;96448.69;;;14.20;87.72
15932;BME280;8065;49.520;11.284;2023-04-24T05:32:06;96446.78;;;14.21;88.09
15932;BME280;8065;49.520;11.284;2023-04-24T05:34:33;96449.13;;;14.26;87.12
15932;BME280;8065;49.520;11.284;2023-04-24T05:37:00;96450.66;;;14.27;87.78
15932;BME280;8065;49.520;11.284;2023-04-24T05:39:27;96446.84;;;14.28;87.54
15932;BME280;8065;49.520;11.284;2023-04-24T05:41:54;96463.63;;;14.25;87.61
15932;BME280;8065;49.520;11.284;2023-04-24T05:44:23;96456.00;;;14.27;87.61
15932;BME280;8065;49.520;11.284;2023-04-24T05:46:49;96464.38;;;14.25;87.44
15932;BME280;8065;49.520;11.284;2023-04-24T05:49:15;96465.09;;;14.19;88.04
15932;BME280;8065;49.520;11.284;2023-04-24T05:51:42;96464.34;;;14.22;87.15
15932;BME280;8065;49.520;11.284;2023-04-24T05:54:08;96475.06;;;14.25;87.54
15932;BME280;8065;49.520;11.284;2023-04-24T05:56:38;96471.69;;;14.28;87.08
15932;BME280;8065;49.520;11.284;2023-04-24T05:59:05;96478.19;;;14.31;87.61
15932;BME280;8065;49.520;11.284;2023-04-24T06:01:32;96473.25;;;14.33;87.16
15932;BME280;8065;49.520;11.284;2023-04-24T06:03:59;96472.84;;;14.31;87.93
15932;BME280;8065;49.520;11.284;2023-04-24T06:06:25;96478.66;;;14.40;87.32
15932;BME280;8065;49.520;11.284;2023-04-24T06:08:52;96477.63;;;14.48;86.75
15932;BME280;8065;49.520;11.284;2023-04-24T06:11:18;96479.53;;;14.48;86.81
15932;BME280;8065;49.520;11.284;2023-04-24T06:13:46;96479.81;;;14.39;87.15
15932;BME280;8065;49.520;11.284;2023-04-24T06:16:13;96473.78;;;14.46;86.98
15932;BME280;8065;49.520;11.284;2023-04-24T06:18:40;96476.91;;;14.51;87.27
15932;BME280;8065;49.520;11.284;2023-04-24T06:21:06;96474.16;;;14.44;86.61
15932;BME280;8065;49.520;11.284;2023-04-24T06:23:32;96473.78;;;14.46;87.29
15932;BME280;8065;49.520;11.284;2023-04-24T06:25:59;96471.16;;;14.49;87.00
15932;BME280;8065;49.520;11.284;2023-04-24T06:28:25;96476.16;;;14.54;87.12
15932;BME280;8065;49.520;11.284;2023-04-24T06:30:53;96475.38;;;14.50;87.04
15932;BME280;8065;49.520;11.284;2023-04-24T06:33:20;96476.09;;;14.47;87.48
15932;BME280;8065;49.520;11.284;2023-04-24T06:35:46;96475.66;;;14.41;87.20
15932;BME280;8065;49.520;11.284;2023-04-24T06:38:13;96478.78;;;14.47;87.60
15932;BME280;8065;49.520;11.284;2023-04-24T06:40:39;96479.22;;;14.53;87.22
15932;BME280;8065;49.520;11.284;2023-04-24T06:43:05;96470.09;;;14.57;87.06
15932;BME280;8065;49.520;11.284;2023-04-24T06:45:32;96486.13;;;14.57;87.17
15932;BME280;8065;49.520;11.284;2023-04-24T06:48:00;96486.88;;;14.54;87.38
15932;BME280;8065;49.520;11.284;2023-04-24T06:50:26;96484.19;;;14.54;87.09
15932;BME280;8065;49.520;11.284;2023-04-24T06:52:53;96483.31;;;14.43;86.70
15932;BME280;8065;49.520;11.284;2023-04-24T06:55:19;96496.75;;;14.50;87.10
15932;BME280;8065;49.520;11.284;2023-04-24T06:57:46;96508.25;;;14.54;86.65
15932;BME280;8065;49.520;11.284;2023-04-24T07:00:13;96499.56;;;14.31;85.27
15932;BME280;8065;49.520;11.284;2023-04-24T07:02:40;96488.13;;;14.30;86.00
15932;BME280;8065;49.520;11.284;2023-04-24T07:05:08;96501.97;;;14.39;85.26
15932;BME280;8065;49.520;11.284;2023-04-24T07:07:35;96504.38;;;14.48;85.97
15932;BME280;8065;49.520;11.284;2023-04-24T07:10:03;96504.25;;;14.41;85.40
15932;BME280;8065;49.520;11.284;2023-04-24T07:12:30;96509.69;;;14.45;84.58
15932;BME280;8065;49.520;11.284;2023-04-24T07:14:56;96516.59;;;14.49;84.39
15932;BME280;8065;49.520;11.284;2023-04-24T07:17:23;96509.38;;;14.53;84.52
15932;BME280;8065;49.520;11.284;2023-04-24T07:19:49;96510.59;;;14.59;83.13
15932;BME280;8065;49.520;11.284;2023-04-24T07:22:17;96518.72;;;14.73;84.00
15932;BME280;8065;49.520;11.284;2023-04-24T07:24:44;96513.66;;;14.61;82.26
15932;BME280;8065;49.520;11.284;2023-04-24T07:27:10;96516.03;;;14.73;82.17
15932;BME280;8065;49.520;11.284;2023-04-24T07:29:37;96520.69;;;14.80;80.56
15932;BME280;8065;49.520;11.284;2023-04-24T07:32:03;96526.69;;;14.66;81.74
15932;BME280;8065;49.520;11.284;2023-04-24T07:34:30;96525.25;;;14.76;81.97
15932;BME280;8065;49.520;11.284;2023-04-24T07:36:56;96530.59;;;14.72;82.22
15932;BME280;8065;49.520;11.284;2023-04-24T07:39:24;96522.59;;;14.80;81.56
15932;BME280;8065;49.520;11.284;2023-04-24T07:41:51;96539.41;;;14.80;81.25
15932;BME280;8065;49.520;11.284;2023-04-24T07:44:18;96540.19;;;14.81;80.66
15932;BME280;8065;49.520;11.284;2023-04-24T07:46:45;96542.00;;;14.69;78.46
15932;BME280;8065;49.520;11.284;2023-04-24T07:49:11;96548.75;;;14.56;79.25
15932;BME280;8065;49.520;11.284;2023-04-24T07:51:38;96552.81;;;14.84;78.42
15932;BME280;8065;49.520;11.284;2023-04-24T07:54:04;96562.19;;;14.63;77.29
15932;BME280;8065;49.520;11.284;2023-04-24T07:56:33;96551.53;;;14.67;75.58
15932;BME280;8065;49.520;11.284;2023-04-24T07:59:01;96548.06;;;14.63;75.97
15932;BME280;8065;49.520;11.284;2023-04-24T08:01:27;96553.38;;;14.59;75.37
15932;BME280;8065;49.520;11.284;2023-04-24T08:03:54;96555.56;;;14.50;75.75
15932;BME280;8065;49.520;11.284;2023-04-24T08:06:20;96558.28;;;14.54;75.10
15932;BME280;8065;49.520;11.284;2023-04-24T08:08:47;96566.34;;;14.57;75.83
15932;BME280;8065;49.520;11.284;2023-04-24T08:11:13;96563.44;;;14.76;75.85
15932;BME280;8065;49.520;11.284;2023-04-24T08:13:41;96559.25;;;14.75;74.65
15932;BME280;8065;49.520;11.284;2023-04-24T08:16:07;96563.53;;;14.84;75.05
15932;BME280;8065;49.520;11.284;2023-04-24T08:18:34;96560.13;;;14.87;74.20
15932;BME280;8065;49.520;11.284;2023-04-24T08:21:01;96559.78;;;14.92;74.41
15932;BME280;8065;49.520;11.284;2023-04-24T08:23:27;96562.13;;;14.97;73.29
15932;BME280;8065;49.520;11.284;2023-04-24T08:25:54;96554.63;;;15.13;73.38
15932;BME280;8065;49.520;11.284;2023-04-24T08:28:21;96566.78;;;15.03;72.96
15932;BME280;8065;49.520;11.284;2023-04-24T08:30:49;96570.75;;;15.20;73.49
15932;BME280;8065;49.520;11.284;2023-04-24T08:33:19;96577.22;;;15.19;72.53
15932;BME280;8065;49.520;11.284;2023-04-24T08:35:46;96570.78;;;15.24;71.66
15932;BME280;8065;49.520;11.284;2023-04-24T08:38:12;96574.00;;;15.44;71.37
15932;BME280;8065;49.520;11.284;2023-04-24T08:40:39;96578.66;;;15.54;71.86
15932;BME280;8065;49.520;11.284;2023-04-24T08:43:06;96577.06;;;15.46;70.79
15932;BME280;8065;49.520;11.284;2023-04-24T08:45:32;96580.47;;;15.43;70.35
15932;BME280;8065;49.520;11.284;2023-04-24T08:48:02;96582.81;;;15.48;71.42
15932;BME280;8065;49.520;11.284;2023-04-24T08:50:29;96585.47;;;15.44;69.88
15932;BME280;8065;49.520;11.284;2023-04-24T08:52:56;96597.06;;;15.15;68.29
15932;BME280;8065;49.520;11.284;2023-04-24T08:55:23;96588.47;;;15.35;67.91
15932;BME280;8065;49.520;11.284;2023-04-24T08:57:52;96588.47;;;15.35;67.70
15932;BME280;8065;49.520;11.284;2023-04-24T09:00:20;96580.88;;;15.45;67.52
15932;BME280;8065;49.520;11.284;2023-04-24T09:02:49;96585.97;;;15.57;67.99
15932;BME280;8065;49.520;11.284;2023-04-24T09:05:17;96584.28;;;15.93;67.50
15932;BME280;8065;49.520;11.284;2023-04-24T09:07:45;96586.66;;;16.09;67.85
15932;BME280;8065;49.520;11.284;2023-04-24T09:10:13;96580.59;;;16.19;67.34
15932;BME280;8065;49.520;11.284;2023-04-24T09:12:40;96575.97;;;16.16;66.62
15932;BME280;8065;49.520;11.284;2023-04-24T09:15:08;96572.19;;;16.27;65.54
15932;BME280;8065;49.520;11.284;2023-04-24T09:17:34;96582.75;;;15.92;64.98
15932;BME280;8065;49.520;11.284;2023-04-24T09:20:01;96583.41;;;15.78;64.50
15932;BME280;8065;49.520;11.284;2023-04-24T09:22:30;96585.78;;;15.90;65.31
15932;BME280;8065;49.520;11.284;2023-04-24T09:25:02;96584.38;;;16.11;64.44
15932;BME280;8065;49.520;11.284;2023-04-24T09:27:29;96586.56;;;15.94;63.74
15932;BME280;8065;49.520;11.284;2023-04-24T09:29:56;96586.19;;;15.92;64.79
15932;BME280;8065;49.520;11.284;2023-04-24T09:32:24;96578.97;;;16.03;65.25
15932;BME280;8065;49.520;11.284;2023-04-24T09:35:05;96585.81;;;15.94;64.53
15932;BME280;8065;49.520;11.284;2023-04-24T09:37:36;96586.72;;;16.19;65.11
15932;BME280;8065;49.520;11.284;2023-04-24T09:40:14;96582.25;;;16.55;64.13
15932;BME280;8065;49.520;11.284;2023-04-24T09:42:43;96582.31;;;16.66;63.56
15932;BME280;8065;49.520;11.284;2023-04-24T09:45:11;96576.19;;;16.76;64.25
15932;BME280;8065;49.520;11.284;2023-04-24T09:47:38;96576.94;;;16.69;64.08
15932;BME280;8065;49.520;11.284;2023-04-24T09:50:13;96581.84;;;16.43;63.20
15932;BME280;8065;49.520;11.284;2023-04-24T09:52:42;96580.69;;;16.54;63.98
15932;BME280;8065;49.520;11.284;2023-04-24T09:55:20;96602.38;;;16.14;63.56
15932;BME280;8065;49.520;11.284;2023-04-24T09:57:48;96592.13;;;16.33;63.02
15932;BME280;8065;49.520;11.284;2023-04-24T10:00:18;96585.59;;;16.24;62.04
15932;BME280;8065;49.520;11.284;2023-04-24T10:02:49;96579.19;;;16.64;61.43
15932;BME280;8065;49.520;11.284;2023-04-24T10:05:16;96583.47;;;16.76;62.58
15932;BME280;8065;49.520;11.284;2023-04-24T10:07:45;96578.88;;;16.76;61.91
15932;BME280;8065;49.520;11.284;2023-04-24T10:10:11;96584.59;;;16.67;60.94
15932;BME280;8065;49.520;11.284;2023-04-24T10:12:37;96578.38;;;16.42;60.86
15932;BME280;8065;49.520;11.284;2023-04-24T10:15:05;96592.19;;;16.44;61.40
15932;BME280;8065;49.520;11.284;2023-04-24T10:17:32;96579.56;;;16.59;59.64
15932;BME280;8065;49.520;11.284;2023-04-24T10:20:00;96567.75;;;16.74;59.04
15932;BME280;8065;49.520;11.284;2023-04-24T10:22:27;96576.66;;;17.21;58.83
15932;BME280;8065;49.520;11.284;2023-04-24T10:24:56;96580.09;;;17.43;57.66
15932;BME280;8065;49.520;11.284;2023-04-24T10:27:25;96567.03;;;17.37;56.76
15932;BME280;8065;49.520;11.284;2023-04-24T10:29:53;96576.25;;;17.68;56.07
15932;BME280;8065;49.520;11.284;2023-04-24T10:32:19;96592.38;;;17.26;54.88
15932;BME280;8065;49.520;11.284;2023-04-24T10:34:45;96598.50;;;17.16;55.17
15932;BME280;8065;49.520;11.284;2023-04-24T10:37:12;96590.44;;;17.48;56.83
15932;BME280;8065;49.520;11.284;2023-04-24T10:39:39;96587.41;;;17.67;56.30
15932;BME280;8065;49.520;11.284;2023-04-24T10:42:15;96595.44;;;17.60;56.53
15932;BME280;8065;49.520;11.284;2023-04-24T10:47:12;96602.34;;;17.11;56.23
15932;BME280;8065;49.520;11.284;2023-04-24T10:49:39;96608.47;;;17.12;55.92
15932;BME280;8065;49.520;11.284;2023-04-24T10:52:08;96593.13;;;17.05;56.07
15932;BME280;8065;49.520;11.284;2023-04-24T10:54:36;96614.56;;;16.84;57.18
15932;BME280;8065;49.520;11.284;2023-04-24T10:57:29;96626.09;;;16.98;59.27
15932;BME280;8065;49.520;11.284;2023-04-24T11:00:14;96633.28;;;16.66;59.15
15932;BME280;8065;49.520;11.284;2023-04-24T11:02:41;96638.16;;;16.46;60.36
15932;BME280;8065;49.520;11.284;2023-04-24T11:05:15;96649.28;;;16.55;60.52
15932;BME280;8065;49.520;11.284;2023-04-24T11:08:13;96644.13;;;16.15;60.27
15932;BME280;8065;49.520;11.284;2023-04-24T11:10:44;96638.03;;;16.18;60.83
15932;BME280;8065;49.520;11.284;2023-04-24T11:13:14;96656.06;;;16.24;60.17
15932;BME280;8065;49.520;11.284;2023-04-24T11:15:41;96653.97;;;15.96;59.69
15932;BME280;8065;49.520;11.284;2023-04-24T11:18:13;96663.84;;;15.85;60.16
15932;BME280;8065;49.520;11.284;2023-04-24T11:20:42;96663.84;;;15.85;59.51
15932;BME280;8065;49.520;11.284;2023-04-24T11:23:08;96653.94;;;15.93;59.94
15932;BME280;8065;49.520;11.284;2023-04-24T11:25:38;96667.59;;;15.77;58.81
15932;BME280;8065;49.520;11.284;2023-04-24T11:28:05;96671.69;;;15.64;56.76
15932;BME280;8065;49.520;11.284;2023-04-24T11:30:33;96669.34;;;15.55;56.49
15932;BME280;8065;49.520;11.284;2023-04-24T11:33:04;96671.38;;;15.69;55.94
15932;BME280;8065;49.520;11.284;2023-04-24T11:35:35;96672.44;;;15.57;54.84
15932;BME280;8065;49.520;11.284;2023-04-24T11:38:04;96679.13;;;15.81;55.13
15932;BME280;8065;49.520;11.284;2023-04-24T11:40:30;96678.44;;;15.91;56.16
15932;BME280;8065;49.520;11.284;2023-04-24T11:42:59;96670.84;;;16.00;55.49
15932;BME280;8065;49.520;11.284;2023-04-24T11:45:29;96669.31;;;16.03;55.06
15932;BME280;8065;49.520;11.284;2023-04-24T11:47:57;96669.75;;;16.09;55.56
15932;BME280;8065;49.520;11.284;2023-04-24T11:50:25;96667.38;;;15.96;55.77
15932;BME280;8065;49.520;11.284;2023-04-24T11:52:53;96674.84;;;16.28;55.54
15932;BME280;8065;49.520;11.284;2023-04-24T11:55:24;96668.03;;;16.45;55.94
15932;BME280;8065;49.520;11.284;2023-04-24T11:57:53;96660.72;;;16.38;55.16
15932;BME280;8065;49.520;11.284;2023-04-24T12:00:22;96656.81;;;16.25;56.00
15932;BME280;8065;49.520;11.284;2023-04-24T12:02:49;96662.16;;;16.18;55.77
15932;BME280;8065;49.520;11.284;2023-04-24T12:05:20;96670.28;;;16.32;56.74
15932;BME280;8065;49.520;11.284;2023-04-24T12:07:47;96670.22;;;16.25;57.05
15932;BME280;8065;49.520;11.284;2023-04-24T12:10:14;96692.41;;;16.18;58.23
15932;BME280;8065;49.520;11.284;2023-04-24T12:12:41;96680.41;;;16.01;58.35
15932;BME280;8065;49.520;11.284;2023-04-24T12:15:08;96686.22;;;16.11;58.25
15932;BME280;8065;49.520;11.284;2023-04-24T12:17:35;96683.94;;;16.13;57.54
15932;BME280;8065;49.520;11.284;2023-04-24T12:20:03;96683.81;;;15.95;56.25
15932;BME280;8065;49.520;11.284;2023-04-24T12:22:45;96692.22;;;15.93;55.75
15932;BME280;8065;49.520;11.284;2023-04-24T12:25:12;96695.31;;;15.95;55.71
15932;BME280;8065;49.520;11.284;2023-04-24T12:27:39;96695.44;;;16.13;55.91
15932;BME280;8065;49.520;11.284;2023-04-24T12:30:09;96693.06;;;16.04;56.04
15932;BME280;8065;49.520;11.284;2023-04-24T12:32:41;96696.19;;;16.10;56.34
15932;BME280;8065;49.520;11.284;2023-04-24T12:35:08;96699.28;;;16.16;56.60
15932;BME280;8065;49.520;11.284;2023-04-24T12:37:35;96701.66;;;16.28;57.08
15932;BME280;8065;49.520;11.284;2023-04-24T12:40:04;96684.28;;;16.08;56.88
15932;BME280;8065;49.520;11.284;2023-04-24T12:42:32;96686.22;;;16.11;56.37
15932;BME280;8065;49.520;11.284;2023-04-24T12:45:01;96689.31;;;16.16;56.74
15932;BME280;8065;49.520;11.284;2023-04-24T12:47:28;96687.94;;;16.47;57.31
15932;BME280;8065;49.520;11.284;2023-04-24T12:49:55;96675.72;;;16.50;56.52
15932;BME280;8065;49.520;11.284;2023-04-24T12:52:22;96671.53;;;16.59;56.59
15932;BME280;8065;49.520;11.284;2023-04-24T12:54:49;96686.38;;;16.32;56.38
15932;BME280;8065;49.520;11.284;2023-04-24T12:57:18;96694.72;;;16.20;56.27
15932;BME280;8065;49.520;11.284;2023-04-24T12:59:44;96701.31;;;16.33;56.67
15932;BME280;8065;49.520;11.284;2023-04-24T13:02:11;96700.63;;;16.50;56.66
15932;BME280;8065;49.520;11.284;2023-04-24T13:04:38;96690.63;;;16.47;56.76